sensor_id;sensor_type;location;lat;lon;timestamp;temperature;humidity
14061;DHT22;7105;43.616;1.434;2023-03-03T00:01:22;4.80;99.90
14061;DHT22;7105;43.616;1.434;2023-03-03T00:03:51;4.80;99.90
14061;DHT22;7105;43.616;1.434;2023-03-03T00:06:18;4.80;99.90
14061;DHT22;7105;43.616;1.434;2023-03-03T00:08:44;4.80;99.90
14061;DHT22;7105;43.616;1.434;2023-03-03T00:11:10;4.70;99.90
14061;DHT22;7105;43.616;1.434;2023-03-03T00:13:49;4.70;99.90
14061;DHT22;7105;43.616;1.434;2023-03-03T00:18:46;4.70;99.90
14061;DHT22;7105;43.616;1.434;2023-03-03T00:21:34;4.70;99.90
14061;DHT22;7105;43.616;1.434;2023-03-03T00:26:38;4.70;99.90
14061;DHT22;7105;43.616;1.434;2023-03-03T00:34:33;4.70;99.90
14061;DHT22;7105;43.616;1.434;2023-03-03T00:36:59;4.60;99.90
14061;DHT22;7105;43.616;1.434;2023-03-03T00:39:35;4.50;99.90
14061;DHT22;7105;43.616;1.434;2023-03-03T00:42:14;4.50;99.90
14061;DHT22;7105;43.616;1.434;2023-03-03T00:44:59;4.50;99.90
14061;DHT22;7105;43.616;1.434;2023-03-03T00:47:36;4.40;99.90
14061;DHT22;7105;43.616;1.434;2023-03-03T00:52:41;4.40;99.90
14061;DHT22;7105;43.616;1.434;2023-03-03T00:55:10;4.40;99.90
14061;DHT22;7105;43.616;1.434;2023-03-03T00:57:36;4.30;99.90
14061;DHT22;7105;43.616;1.434;2023-03-03T01:00:03;4.30;99.90
14061;DHT22;7105;43.616;1.434;2023-03-03T01:02:29;4.30;99.90
14061;DHT22;7105;43.616;1.434;2023-03-03T01:04:55;4.30;99.90
14061;DHT22;7105;43.616;1.434;2023-03-03T01:07:22;4.30;99.90
14061;DHT22;7105;43.616;1.434;2023-03-03T01:09:48;4.30;99.90
14061;DHT22;7105;43.616;1.434;2023-03-03T01:12:14;4.30;99.90
14061;DHT22;7105;43.616;1.434;2023-03-03T01:14:40;4.30;99.90
14061;DHT22;7105;43.616;1.434;2023-03-03T01:17:06;4.20;99.90
14061;DHT22;7105;43.616;1.434;2023-03-03T01:19:33;4.20;99.90
14061;DHT22;7105;43.616;1.434;2023-03-03T01:21:59;4.10;99.90
14061;DHT22;7105;43.616;1.434;2023-03-03T01:24:24;4.10;99.90
14061;DHT22;7105;43.616;1.434;2023-03-03T01:26:50;4.10;99.90
14061;DHT22;7105;43.616;1.434;2023-03-03T01:29:16;4.10;99.90
14061;DHT22;7105;43.616;1.434;2023-03-03T01:31:41;4.00;99.90
14061;DHT22;7105;43.616;1.434;2023-03-03T01:34:07;4.10;99.90
14061;DHT22;7105;43.616;1.434;2023-03-03T01:36:33;4.10;99.90
14061;DHT22;7105;43.616;1.434;2023-03-03T01:38:59;4.00;99.90
14061;DHT22;7105;43.616;1.434;2023-03-03T01:41:29;4.00;99.90
14061;DHT22;7105;43.616;1.434;2023-03-03T01:43:58;4.00;99.90
14061;DHT22;7105;43.616;1.434;2023-03-03T01:49:30;4.00;99.90
14061;DHT22;7105;43.616;1.434;2023-03-03T01:52:00;4.00;99.90
14061;DHT22;7105;43.616;1.434;2023-03-03T01:54:42;4.00;99.90
14061;DHT22;7105;43.616;1.434;2023-03-03T01:57:24;4.00;99.90
14061;DHT22;7105;43.616;1.434;2023-03-03T01:59:52;4.00;99.90
14061;DHT22;7105;43.616;1.434;2023-03-03T02:02:20;4.00;99.90
14061;DHT22;7105;43.616;1.434;2023-03-03T02:04:46;4.10;99.90
14061;DHT22;7105;43.616;1.434;2023-03-03T02:07:14;4.10;99.90
14061;DHT22;7105;43.616;1.434;2023-03-03T02:09:44;4.10;99.90
14061;DHT22;7105;43.616;1.434;2023-03-03T02:12:13;4.10;99.90
14061;DHT22;7105;43.616;1.434;2023-03-03T02:14:40;4.20;99.90
14061;DHT22;7105;43.616;1.434;2023-03-03T02:17:05;4.20;99.90
14061;DHT22;7105;43.616;1.434;2023-03-03T02:22:17;4.30;99.90
14061;DHT22;7105;43.616;1.434;2023-03-03T02:24:51;4.30;99.90
14061;DHT22;7105;43.616;1.434;2023-03-03T02:27:19;4.30;99.90
14061;DHT22;7105;43.616;1.434;2023-03-03T02:29:44;4.30;99.90
14061;DHT22;7105;43.616;1.434;2023-03-03T02:32:10;4.30;99.90
14061;DHT22;7105;43.616;1.434;2023-03-03T02:34:49;4.30;99.90
14061;DHT22;7105;43.616;1.434;2023-03-03T02:37:16;4.40;99.90
14061;DHT22;7105;43.616;1.434;2023-03-03T02:39:43;4.40;99.90
14061;DHT22;7105;43.616;1.434;2023-03-03T02:42:24;4.40;99.90
14061;DHT22;7105;43.616;1.434;2023-03-03T02:44:51;4.40;99.90
14061;DHT22;7105;43.616;1.434;2023-03-03T02:47:17;4.40;99.90
14061;DHT22;7105;43.616;1.434;2023-03-03T02:49:42;4.40;99.90
14061;DHT22;7105;43.616;1.434;2023-03-03T02:52:10;4.40;99.90
14061;DHT22;7105;43.616;1.434;2023-03-03T02:54:37;4.40;99.90
14061;DHT22;7105;43.616;1.434;2023-03-03T02:57:03;4.40;99.90
14061;DHT22;7105;43.616;1.434;2023-03-03T02:59:30;4.40;99.90
14061;DHT22;7105;43.616;1.434;2023-03-03T03:01:56;4.40;99.90
14061;DHT22;7105;43.616;1.434;2023-03-03T03:04:24;4.40;99.90
14061;DHT22;7105;43.616;1.434;2023-03-03T03:06:51;4.40;99.90
14061;DHT22;7105;43.616;1.434;2023-03-03T03:09:17;4.40;99.90
14061;DHT22;7105;43.616;1.434;2023-03-03T03:11:43;4.40;99.90
14061;DHT22;7105;43.616;1.434;2023-03-03T03:14:11;4.40;99.90
14061;DHT22;7105;43.616;1.434;2023-03-03T03:16:38;4.40;99.90
14061;DHT22;7105;43.616;1.434;2023-03-03T03:19:04;4.40;99.90
14061;DHT22;7105;43.616;1.434;2023-03-03T03:21:31;4.40;99.90
14061;DHT22;7105;43.616;1.434;2023-03-03T03:23:56;4.40;99.90
14061;DHT22;7105;43.616;1.434;2023-03-03T03:26:22;4.40;99.90
14061;DHT22;7105;43.616;1.434;2023-03-03T03:28:48;4.50;99.90
14061;DHT22;7105;43.616;1.434;2023-03-03T03:31:15;4.60;99.90
14061;DHT22;7105;43.616;1.434;2023-03-03T03:33:41;4.60;99.90
14061;DHT22;7105;43.616;1.434;2023-03-03T03:36:07;4.60;99.90
14061;DHT22;7105;43.616;1.434;2023-03-03T03:38:33;4.50;99.90
14061;DHT22;7105;43.616;1.434;2023-03-03T03:40:59;4.50;99.90
14061;DHT22;7105;43.616;1.434;2023-03-03T03:43:25;4.50;99.90
14061;DHT22;7105;43.616;1.434;2023-03-03T03:45:51;4.60;99.90
14061;DHT22;7105;43.616;1.434;2023-03-03T03:48:17;4.50;99.90
14061;DHT22;7105;43.616;1.434;2023-03-03T03:50:47;4.50;99.90
14061;DHT22;7105;43.616;1.434;2023-03-03T03:53:13;4.60;99.90
14061;DHT22;7105;43.616;1.434;2023-03-03T03:55:39;4.50;99.90
14061;DHT22;7105;43.616;1.434;2023-03-03T03:58:05;4.60;99.90
14061;DHT22;7105;43.616;1.434;2023-03-03T04:00:30;4.60;99.90
14061;DHT22;7105;43.616;1.434;2023-03-03T04:02:56;4.60;99.90
14061;DHT22;7105;43.616;1.434;2023-03-03T04:05:22;4.60;99.90
14061;DHT22;7105;43.616;1.434;2023-03-03T04:07:48;4.50;99.90
14061;DHT22;7105;43.616;1.434;2023-03-03T04:10:14;4.50;99.90
14061;DHT22;7105;43.616;1.434;2023-03-03T04:12:39;4.60;99.90
14061;DHT22;7105;43.616;1.434;2023-03-03T04:15:07;4.60;99.90
14061;DHT22;7105;43.616;1.434;2023-03-03T04:17:34;4.60;99.90
14061;DHT22;7105;43.616;1.434;2023-03-03T04:19:59;4.60;99.90
14061;DHT22;7105;43.616;1.434;2023-03-03T04:22:27;4.70;99.90
14061;DHT22;7105;43.616;1.434;2023-03-03T04:24:52;4.70;99.90
14061;DHT22;7105;43.616;1.434;2023-03-03T04:27:18;4.60;99.90
14061;DHT22;7105;43.616;1.434;2023-03-03T04:29:44;4.70;99.90
14061;DHT22;7105;43.616;1.434;2023-03-03T04:32:09;4.60;99.90
14061;DHT22;7105;43.616;1.434;2023-03-03T04:34:35;4.60;99.90
14061;DHT22;7105;43.616;1.434;2023-03-03T04:37:01;4.60;99.90
14061;DHT22;7105;43.616;1.434;2023-03-03T04:39:27;4.60;99.90
14061;DHT22;7105;43.616;1.434;2023-03-03T04:41:53;4.60;99.90
14061;DHT22;7105;43.616;1.434;2023-03-03T04:44:19;4.60;99.90
14061;DHT22;7105;43.616;1.434;2023-03-03T04:46:45;4.60;99.90
14061;DHT22;7105;43.616;1.434;2023-03-03T04:49:10;4.60;99.90
14061;DHT22;7105;43.616;1.434;2023-03-03T04:51:36;4.60;99.90
14061;DHT22;7105;43.616;1.434;2023-03-03T04:54:02;4.60;99.90
14061;DHT22;7105;43.616;1.434;2023-03-03T04:56:29;4.60;99.90
14061;DHT22;7105;43.616;1.434;2023-03-03T04:58:56;4.60;99.90
14061;DHT22;7105;43.616;1.434;2023-03-03T05:01:21;4.60;99.90
14061;DHT22;7105;43.616;1.434;2023-03-03T05:03:47;4.60;99.90
14061;DHT22;7105;43.616;1.434;2023-03-03T05:06:13;4.60;99.90
14061;DHT22;7105;43.616;1.434;2023-03-03T05:08:39;4.60;99.90
14061;DHT22;7105;43.616;1.434;2023-03-03T05:11:07;4.60;99.90
14061;DHT22;7105;43.616;1.434;2023-03-03T05:13:33;4.60;99.90
14061;DHT22;7105;43.616;1.434;2023-03-03T05:15:59;4.60;99.90
14061;DHT22;7105;43.616;1.434;2023-03-03T05:18:25;4.70;99.90
14061;DHT22;7105;43.616;1.434;2023-03-03T05:20:51;4.70;99.90
14061;DHT22;7105;43.616;1.434;2023-03-03T05:23:17;4.60;99.90
14061;DHT22;7105;43.616;1.434;2023-03-03T05:25:43;4.60;99.90
14061;DHT22;7105;43.616;1.434;2023-03-03T05:28:10;4.60;99.90
14061;DHT22;7105;43.616;1.434;2023-03-03T05:30:36;4.60;99.90
14061;DHT22;7105;43.616;1.434;2023-03-03T05:33:03;4.60;99.90
14061;DHT22;7105;43.616;1.434;2023-03-03T05:35:29;4.70;99.90
14061;DHT22;7105;43.616;1.434;2023-03-03T05:37:55;4.70;99.90
14061;DHT22;7105;43.616;1.434;2023-03-03T05:40:23;4.70;99.90
14061;DHT22;7105;43.616;1.434;2023-03-03T05:42:49;4.70;99.90
14061;DHT22;7105;43.616;1.434;2023-03-03T05:45:16;4.70;99.90
14061;DHT22;7105;43.616;1.434;2023-03-03T05:47:45;4.70;99.90
14061;DHT22;7105;43.616;1.434;2023-03-03T05:50:11;4.70;99.90
14061;DHT22;7105;43.616;1.434;2023-03-03T05:52:37;4.60;99.90
14061;DHT22;7105;43.616;1.434;2023-03-03T05:55:03;4.60;99.90
14061;DHT22;7105;43.616;1.434;2023-03-03T05:57:29;4.60;99.90
14061;DHT22;7105;43.616;1.434;2023-03-03T05:59:54;4.60;99.90
14061;DHT22;7105;43.616;1.434;2023-03-03T06:02:20;4.60;99.90
14061;DHT22;7105;43.616;1.434;2023-03-03T06:04:46;4.70;99.90
14061;DHT22;7105;43.616;1.434;2023-03-03T06:07:11;4.70;99.90
14061;DHT22;7105;43.616;1.434;2023-03-03T06:09:37;4.70;99.90
14061;DHT22;7105;43.616;1.434;2023-03-03T06:12:03;4.70;99.90
14061;DHT22;7105;43.616;1.434;2023-03-03T06:14:29;4.60;99.90
14061;DHT22;7105;43.616;1.434;2023-03-03T06:16:54;4.60;99.90
14061;DHT22;7105;43.616;1.434;2023-03-03T06:19:22;4.60;99.90
14061;DHT22;7105;43.616;1.434;2023-03-03T06:21:48;4.60;99.90
14061;DHT22;7105;43.616;1.434;2023-03-03T06:24:13;4.70;99.90
14061;DHT22;7105;43.616;1.434;2023-03-03T06:26:39;4.70;99.90
14061;DHT22;7105;43.616;1.434;2023-03-03T06:29:05;4.60;99.90
14061;DHT22;7105;43.616;1.434;2023-03-03T06:31:31;4.70;99.90
14061;DHT22;7105;43.616;1.434;2023-03-03T06:33:57;4.70;99.90
14061;DHT22;7105;43.616;1.434;2023-03-03T06:36:22;4.70;99.90
14061;DHT22;7105;43.616;1.434;2023-03-03T06:38:50;4.70;99.90
14061;DHT22;7105;43.616;1.434;2023-03-03T06:41:15;4.80;99.90
14061;DHT22;7105;43.616;1.434;2023-03-03T06:43:41;4.80;99.90
14061;DHT22;7105;43.616;1.434;2023-03-03T06:46:07;4.70;99.90
14061;DHT22;7105;43.616;1.434;2023-03-03T06:48:33;4.70;99.90
14061;DHT22;7105;43.616;1.434;2023-03-03T06:51:00;4.80;99.90
14061;DHT22;7105;43.616;1.434;2023-03-03T06:53:27;4.80;99.90
14061;DHT22;7105;43.616;1.434;2023-03-03T06:55:55;4.80;99.90
14061;DHT22;7105;43.616;1.434;2023-03-03T06:58:22;4.80;99.90
14061;DHT22;7105;43.616;1.434;2023-03-03T07:00:57;4.90;99.90
14061;DHT22;7105;43.616;1.434;2023-03-03T07:03:32;4.90;99.90
14061;DHT22;7105;43.616;1.434;2023-03-03T07:05:59;4.90;99.90
14061;DHT22;7105;43.616;1.434;2023-03-03T07:08:26;5.00;99.90
14061;DHT22;7105;43.616;1.434;2023-03-03T07:10:54;5.00;99.90
14061;DHT22;7105;43.616;1.434;2023-03-03T07:13:25;5.00;99.90
14061;DHT22;7105;43.616;1.434;2023-03-03T07:15:52;5.10;99.90
14061;DHT22;7105;43.616;1.434;2023-03-03T07:20:50;5.20;99.90
14061;DHT22;7105;43.616;1.434;2023-03-03T07:23:27;5.20;99.90
14061;DHT22;7105;43.616;1.434;2023-03-03T07:25:55;5.20;99.90
14061;DHT22;7105;43.616;1.434;2023-03-03T07:28:48;5.20;99.90
14061;DHT22;7105;43.616;1.434;2023-03-03T07:31:33;5.30;99.90
14061;DHT22;7105;43.616;1.434;2023-03-03T07:34:00;5.50;99.90
14061;DHT22;7105;43.616;1.434;2023-03-03T07:36:28;5.50;99.90
14061;DHT22;7105;43.616;1.434;2023-03-03T07:38:58;5.60;99.90
14061;DHT22;7105;43.616;1.434;2023-03-03T07:41:24;5.20;99.90
14061;DHT22;7105;43.616;1.434;2023-03-03T07:44:05;4.90;99.90
14061;DHT22;7105;43.616;1.434;2023-03-03T07:46:40;4.90;99.90
14061;DHT22;7105;43.616;1.434;2023-03-03T07:51:47;4.80;99.90
14061;DHT22;7105;43.616;1.434;2023-03-03T07:54:29;4.80;99.90
14061;DHT22;7105;43.616;1.434;2023-03-03T07:59:52;5.00;99.90
14061;DHT22;7105;43.616;1.434;2023-03-03T08:04:53;5.10;99.90
14061;DHT22;7105;43.616;1.434;2023-03-03T08:07:21;5.80;99.90
14061;DHT22;7105;43.616;1.434;2023-03-03T08:09:58;5.90;99.90
14061;DHT22;7105;43.616;1.434;2023-03-03T08:12:33;5.60;99.90
14061;DHT22;7105;43.616;1.434;2023-03-03T08:15:17;5.40;99.90
14061;DHT22;7105;43.616;1.434;2023-03-03T08:17:43;5.50;99.90
14061;DHT22;7105;43.616;1.434;2023-03-03T08:20:42;5.60;99.90
14061;DHT22;7105;43.616;1.434;2023-03-03T08:23:09;6.20;99.90
14061;DHT22;7105;43.616;1.434;2023-03-03T08:25:35;6.30;99.90
14061;DHT22;7105;43.616;1.434;2023-03-03T08:28:01;6.00;99.90
14061;DHT22;7105;43.616;1.434;2023-03-03T08:30:27;6.00;99.90
14061;DHT22;7105;43.616;1.434;2023-03-03T08:32:52;6.00;99.90
14061;DHT22;7105;43.616;1.434;2023-03-03T08:35:18;6.20;99.90
14061;DHT22;7105;43.616;1.434;2023-03-03T08:37:44;7.00;99.90
14061;DHT22;7105;43.616;1.434;2023-03-03T08:40:10;7.00;99.90
14061;DHT22;7105;43.616;1.434;2023-03-03T08:42:35;6.70;99.90
14061;DHT22;7105;43.616;1.434;2023-03-03T08:45:01;6.60;99.90
14061;DHT22;7105;43.616;1.434;2023-03-03T08:47:27;6.50;99.90
14061;DHT22;7105;43.616;1.434;2023-03-03T08:49:52;6.70;99.90
14061;DHT22;7105;43.616;1.434;2023-03-03T08:52:19;7.50;99.90
14061;DHT22;7105;43.616;1.434;2023-03-03T08:54:44;6.90;99.90
14061;DHT22;7105;43.616;1.434;2023-03-03T08:57:10;6.80;99.90
14061;DHT22;7105;43.616;1.434;2023-03-03T08:59:36;6.90;99.90
14061;DHT22;7105;43.616;1.434;2023-03-03T09:02:05;7.00;99.90
14061;DHT22;7105;43.616;1.434;2023-03-03T09:04:30;7.20;99.90
14061;DHT22;7105;43.616;1.434;2023-03-03T09:06:56;8.00;99.90
14061;DHT22;7105;43.616;1.434;2023-03-03T09:09:22;7.50;99.90
14061;DHT22;7105;43.616;1.434;2023-03-03T09:11:48;7.20;99.90
14061;DHT22;7105;43.616;1.434;2023-03-03T09:14:17;7.10;99.90
14061;DHT22;7105;43.616;1.434;2023-03-03T09:16:55;7.00;99.90
14061;DHT22;7105;43.616;1.434;2023-03-03T09:19:28;7.90;99.90
14061;DHT22;7105;43.616;1.434;2023-03-03T09:22:19;8.70;99.90
14061;DHT22;7105;43.616;1.434;2023-03-03T09:24:46;7.70;99.90
14061;DHT22;7105;43.616;1.434;2023-03-03T09:27:26;7.60;99.90
14061;DHT22;7105;43.616;1.434;2023-03-03T09:29:52;8.10;99.90
14061;DHT22;7105;43.616;1.434;2023-03-03T09:32:36;8.50;99.90
14061;DHT22;7105;43.616;1.434;2023-03-03T09:37:51;9.20;99.90
14061;DHT22;7105;43.616;1.434;2023-03-03T09:43:16;8.90;99.90
14061;DHT22;7105;43.616;1.434;2023-03-03T09:49:48;9.50;99.90
14061;DHT22;7105;43.616;1.434;2023-03-03T10:03:12;8.90;99.90
14061;DHT22;7105;43.616;1.434;2023-03-03T10:14:50;8.50;99.90
14061;DHT22;7105;43.616;1.434;2023-03-03T10:17:49;8.60;99.90
14061;DHT22;7105;43.616;1.434;2023-03-03T10:20:35;8.20;99.90
14061;DHT22;7105;43.616;1.434;2023-03-03T10:23:17;8.60;99.90
14061;DHT22;7105;43.616;1.434;2023-03-03T10:29:10;7.90;99.90
14061;DHT22;7105;43.616;1.434;2023-03-03T10:34:58;8.10;99.90
14061;DHT22;7105;43.616;1.434;2023-03-03T10:51:21;8.70;99.90
14061;DHT22;7105;43.616;1.434;2023-03-03T10:59:33;8.60;99.90
14061;DHT22;7105;43.616;1.434;2023-03-03T11:02:32;8.60;99.90
14061;DHT22;7105;43.616;1.434;2023-03-03T11:13:35;8.70;99.90
14061;DHT22;7105;43.616;1.434;2023-03-03T11:21:46;9.60;99.90
14061;DHT22;7105;43.616;1.434;2023-03-03T11:27:38;9.60;99.90
14061;DHT22;7105;43.616;1.434;2023-03-03T11:30:30;9.10;99.90
14061;DHT22;7105;43.616;1.434;2023-03-03T11:33:09;8.70;99.90
14061;DHT22;7105;43.616;1.434;2023-03-03T11:36:38;8.80;99.90
14061;DHT22;7105;43.616;1.434;2023-03-03T11:39:01;8.60;99.90
14061;DHT22;7105;43.616;1.434;2023-03-03T11:46:38;8.70;99.90
14061;DHT22;7105;43.616;1.434;2023-03-03T11:49:10;9.00;99.90
14061;DHT22;7105;43.616;1.434;2023-03-03T11:54:45;8.80;99.90
14061;DHT22;7105;43.616;1.434;2023-03-03T11:57:34;8.40;99.90
14061;DHT22;7105;43.616;1.434;2023-03-03T12:16:57;8.70;99.90
14061;DHT22;7105;43.616;1.434;2023-03-03T12:27:52;8.90;99.90
14061;DHT22;7105;43.616;1.434;2023-03-03T12:39:06;9.60;99.90
14061;DHT22;7105;43.616;1.434;2023-03-03T12:49:04;10.40;99.90
14061;DHT22;7105;43.616;1.434;2023-03-03T12:51:41;10.40;99.90
14061;DHT22;7105;43.616;1.434;2023-03-03T12:56:48;9.70;99.90
14061;DHT22;7105;43.616;1.434;2023-03-03T13:02:24;9.60;99.90
14061;DHT22;7105;43.616;1.434;2023-03-03T13:13:23;9.50;99.90
14061;DHT22;7105;43.616;1.434;2023-03-03T13:16:04;9.70;99.90
14061;DHT22;7105;43.616;1.434;2023-03-03T13:18:54;9.70;99.90
14061;DHT22;7105;43.616;1.434;2023-03-03T13:24:01;9.30;99.90
14061;DHT22;7105;43.616;1.434;2023-03-03T13:26:42;9.30;99.90
14061;DHT22;7105;43.616;1.434;2023-03-03T13:31:50;9.40;99.90
14061;DHT22;7105;43.616;1.434;2023-03-03T13:34:40;9.90;99.90
14061;DHT22;7105;43.616;1.434;2023-03-03T13:37:44;9.60;99.90
14061;DHT22;7105;43.616;1.434;2023-03-03T13:45:34;9.70;99.90
14061;DHT22;7105;43.616;1.434;2023-03-03T13:50:48;9.40;99.90
14061;DHT22;7105;43.616;1.434;2023-03-03T13:56:54;9.60;99.90
14061;DHT22;7105;43.616;1.434;2023-03-03T13:58:59;9.60;99.90
14061;DHT22;7105;43.616;1.434;2023-03-03T14:02:56;10.10;99.90
14061;DHT22;7105;43.616;1.434;2023-03-03T14:05:00;10.00;99.90
14061;DHT22;7105;43.616;1.434;2023-03-03T14:07:44;9.80;99.90
14061;DHT22;7105;43.616;1.434;2023-03-03T14:11:02;10.00;99.90
14061;DHT22;7105;43.616;1.434;2023-03-03T14:13:48;9.90;99.90
14061;DHT22;7105;43.616;1.434;2023-03-03T14:19:02;10.20;99.90
14061;DHT22;7105;43.616;1.434;2023-03-03T14:21:50;9.90;99.90
14061;DHT22;7105;43.616;1.434;2023-03-03T14:24:19;9.90;99.90
14061;DHT22;7105;43.616;1.434;2023-03-03T14:26:51;9.80;99.90
14061;DHT22;7105;43.616;1.434;2023-03-03T14:31:47;10.00;99.90
14061;DHT22;7105;43.616;1.434;2023-03-03T14:34:28;9.60;99.90
14061;DHT22;7105;43.616;1.434;2023-03-03T14:37:09;9.40;99.90
14061;DHT22;7105;43.616;1.434;2023-03-03T14:44:56;9.40;99.90
14061;DHT22;7105;43.616;1.434;2023-03-03T14:47:27;9.90;99.90
14061;DHT22;7105;43.616;1.434;2023-03-03T14:49:55;9.60;99.90
14061;DHT22;7105;43.616;1.434;2023-03-03T14:52:30;9.40;99.90
14061;DHT22;7105;43.616;1.434;2023-03-03T14:54:59;9.40;99.90
14061;DHT22;7105;43.616;1.434;2023-03-03T15:00:28;9.20;99.90
14061;DHT22;7105;43.616;1.434;2023-03-03T15:03:02;9.70;99.90
14061;DHT22;7105;43.616;1.434;2023-03-03T15:05:35;9.90;99.90
14061;DHT22;7105;43.616;1.434;2023-03-03T15:10:38;9.40;99.90
14061;DHT22;7105;43.616;1.434;2023-03-03T15:16:09;9.40;99.90
14061;DHT22;7105;43.616;1.434;2023-03-03T15:19:35;9.80;99.90
14061;DHT22;7105;43.616;1.434;2023-03-03T15:21:47;9.50;99.90
14061;DHT22;7105;43.616;1.434;2023-03-03T15:24:26;9.40;99.90
14061;DHT22;7105;43.616;1.434;2023-03-03T15:27:01;9.40;99.90
14061;DHT22;7105;43.616;1.434;2023-03-03T15:32:25;9.50;99.90
14061;DHT22;7105;43.616;1.434;2023-03-03T15:38:14;9.50;99.90
14061;DHT22;7105;43.616;1.434;2023-03-03T15:40:47;9.50;99.90
14061;DHT22;7105;43.616;1.434;2023-03-03T15:43:27;9.50;99.90
14061;DHT22;7105;43.616;1.434;2023-03-03T15:54:35;9.50;99.90
14061;DHT22;7105;43.616;1.434;2023-03-03T15:57:44;9.30;99.90
14061;DHT22;7105;43.616;1.434;2023-03-03T16:00:14;9.60;99.90
14061;DHT22;7105;43.616;1.434;2023-03-03T16:02:54;9.90;99.90
14061;DHT22;7105;43.616;1.434;2023-03-03T16:05:45;9.70;99.90
14061;DHT22;7105;43.616;1.434;2023-03-03T16:08:18;9.40;99.90
14061;DHT22;7105;43.616;1.434;2023-03-03T16:11:06;9.50;99.90
14061;DHT22;7105;43.616;1.434;2023-03-03T16:14:25;9.70;99.90
14061;DHT22;7105;43.616;1.434;2023-03-03T16:16:58;9.50;99.90
14061;DHT22;7105;43.616;1.434;2023-03-03T16:22:36;9.30;99.90
14061;DHT22;7105;43.616;1.434;2023-03-03T16:25:18;9.30;99.90
14061;DHT22;7105;43.616;1.434;2023-03-03T16:28:15;9.60;99.90
14061;DHT22;7105;43.616;1.434;2023-03-03T16:31:11;9.30;99.90
14061;DHT22;7105;43.616;1.434;2023-03-03T16:36:56;9.10;99.90
14061;DHT22;7105;43.616;1.434;2023-03-03T16:42:21;9.20;99.90
14061;DHT22;7105;43.616;1.434;2023-03-03T16:56:31;9.00;99.90
14061;DHT22;7105;43.616;1.434;2023-03-03T16:59:21;8.70;99.90
14061;DHT22;7105;43.616;1.434;2023-03-03T17:07:43;8.80;99.90
14061;DHT22;7105;43.616;1.434;2023-03-03T17:20:59;8.60;99.90
14061;DHT22;7105;43.616;1.434;2023-03-03T17:23:45;8.40;99.90
14061;DHT22;7105;43.616;1.434;2023-03-03T17:26:22;8.10;99.90
14061;DHT22;7105;43.616;1.434;2023-03-03T17:29:15;8.20;99.90
14061;DHT22;7105;43.616;1.434;2023-03-03T17:32:09;8.10;99.90
14061;DHT22;7105;43.616;1.434;2023-03-03T17:34:36;8.30;99.90
14061;DHT22;7105;43.616;1.434;2023-03-03T17:45:14;7.60;99.90
14061;DHT22;7105;43.616;1.434;2023-03-03T17:53:10;7.70;99.90
14061;DHT22;7105;43.616;1.434;2023-03-03T17:59:07;7.50;99.90
14061;DHT22;7105;43.616;1.434;2023-03-03T18:04:48;7.50;99.90
14061;DHT22;7105;43.616;1.434;2023-03-03T18:23:40;7.00;99.90
14061;DHT22;7105;43.616;1.434;2023-03-03T18:37:00;6.80;99.90
14061;DHT22;7105;43.616;1.434;2023-03-03T18:39:44;7.00;99.90
14061;DHT22;7105;43.616;1.434;2023-03-03T18:44:50;6.90;99.90
14061;DHT22;7105;43.616;1.434;2023-03-03T18:47:16;6.70;99.90
14061;DHT22;7105;43.616;1.434;2023-03-03T18:49:55;6.60;99.90
14061;DHT22;7105;43.616;1.434;2023-03-03T18:58:01;6.70;99.90
14061;DHT22;7105;43.616;1.434;2023-03-03T19:00:29;6.70;99.90
14061;DHT22;7105;43.616;1.434;2023-03-03T19:02:57;6.70;99.90
14061;DHT22;7105;43.616;1.434;2023-03-03T19:05:35;6.70;99.90
14061;DHT22;7105;43.616;1.434;2023-03-03T19:10:58;6.80;99.90
14061;DHT22;7105;43.616;1.434;2023-03-03T19:16:10;6.80;99.90
14061;DHT22;7105;43.616;1.434;2023-03-03T19:21:31;6.90;99.90
14061;DHT22;7105;43.616;1.434;2023-03-03T19:24:26;6.60;99.90
14061;DHT22;7105;43.616;1.434;2023-03-03T19:27:17;6.70;99.90
14061;DHT22;7105;43.616;1.434;2023-03-03T19:32:37;6.80;99.90
14061;DHT22;7105;43.616;1.434;2023-03-03T19:37:49;6.50;99.90
14061;DHT22;7105;43.616;1.434;2023-03-03T19:40:41;6.30;99.90
14061;DHT22;7105;43.616;1.434;2023-03-03T19:46:19;6.40;99.90
14061;DHT22;7105;43.616;1.434;2023-03-03T19:48:53;6.20;99.90
14061;DHT22;7105;43.616;1.434;2023-03-03T19:57:36;6.40;99.90
14061;DHT22;7105;43.616;1.434;2023-03-03T20:00:26;6.10;99.90
14061;DHT22;7105;43.616;1.434;2023-03-03T20:03:37;6.10;99.90
14061;DHT22;7105;43.616;1.434;2023-03-03T20:06:22;5.80;99.90
14061;DHT22;7105;43.616;1.434;2023-03-03T20:23:20;5.50;99.90
14061;DHT22;7105;43.616;1.434;2023-03-03T20:31:23;5.20;99.90
14061;DHT22;7105;43.616;1.434;2023-03-03T20:40:03;5.80;99.90
14061;DHT22;7105;43.616;1.434;2023-03-03T20:42:43;5.60;99.90
14061;DHT22;7105;43.616;1.434;2023-03-03T20:45:35;5.60;99.90
14061;DHT22;7105;43.616;1.434;2023-03-03T21:01:39;5.50;99.90
14061;DHT22;7105;43.616;1.434;2023-03-03T21:04:28;5.30;99.90
14061;DHT22;7105;43.616;1.434;2023-03-03T21:06:54;5.30;99.90
14061;DHT22;7105;43.616;1.434;2023-03-03T21:11:54;5.30;99.90
14061;DHT22;7105;43.616;1.434;2023-03-03T21:16:48;5.40;99.90
14061;DHT22;7105;43.616;1.434;2023-03-03T21:19:34;5.40;99.90
14061;DHT22;7105;43.616;1.434;2023-03-03T21:22:02;5.40;99.90
14061;DHT22;7105;43.616;1.434;2023-03-03T21:24:55;5.40;99.90
14061;DHT22;7105;43.616;1.434;2023-03-03T21:27:26;5.40;99.90
14061;DHT22;7105;43.616;1.434;2023-03-03T21:32:51;5.40;99.90
14061;DHT22;7105;43.616;1.434;2023-03-03T21:35:20;5.40;99.90
14061;DHT22;7105;43.616;1.434;2023-03-03T21:37:56;5.30;99.90
14061;DHT22;7105;43.616;1.434;2023-03-03T21:40:26;5.30;99.90
14061;DHT22;7105;43.616;1.434;2023-03-03T21:42:55;5.30;99.90
14061;DHT22;7105;43.616;1.434;2023-03-03T21:45:21;5.30;99.90
14061;DHT22;7105;43.616;1.434;2023-03-03T21:47:49;5.30;99.90
14061;DHT22;7105;43.616;1.434;2023-03-03T21:50:16;5.30;99.90
14061;DHT22;7105;43.616;1.434;2023-03-03T21:52:46;5.20;99.90
14061;DHT22;7105;43.616;1.434;2023-03-03T21:55:12;5.10;99.90
14061;DHT22;7105;43.616;1.434;2023-03-03T21:57:37;5.10;99.90
14061;DHT22;7105;43.616;1.434;2023-03-03T22:00:05;5.00;99.90
14061;DHT22;7105;43.616;1.434;2023-03-03T22:02:31;5.00;99.90
14061;DHT22;7105;43.616;1.434;2023-03-03T22:04:57;5.00;99.90
14061;DHT22;7105;43.616;1.434;2023-03-03T22:07:22;4.90;99.90
14061;DHT22;7105;43.616;1.434;2023-03-03T22:09:48;4.90;99.90
14061;DHT22;7105;43.616;1.434;2023-03-03T22:12:14;4.90;99.90
14061;DHT22;7105;43.616;1.434;2023-03-03T22:14:39;4.90;99.90
14061;DHT22;7105;43.616;1.434;2023-03-03T22:17:05;4.90;99.90
14061;DHT22;7105;43.616;1.434;2023-03-03T22:19:31;5.00;99.90
14061;DHT22;7105;43.616;1.434;2023-03-03T22:21:58;4.90;99.90
14061;DHT22;7105;43.616;1.434;2023-03-03T22:24:24;4.90;99.90
14061;DHT22;7105;43.616;1.434;2023-03-03T22:26:50;4.80;99.90
14061;DHT22;7105;43.616;1.434;2023-03-03T22:29:15;4.80;99.90
14061;DHT22;7105;43.616;1.434;2023-03-03T22:31:47;4.80;99.90
14061;DHT22;7105;43.616;1.434;2023-03-03T22:34:13;4.80;99.90
14061;DHT22;7105;43.616;1.434;2023-03-03T22:36:38;4.70;99.90
14061;DHT22;7105;43.616;1.434;2023-03-03T22:39:04;4.80;99.90
14061;DHT22;7105;43.616;1.434;2023-03-03T22:41:30;4.80;99.90
14061;DHT22;7105;43.616;1.434;2023-03-03T22:43:56;4.70;99.90
14061;DHT22;7105;43.616;1.434;2023-03-03T22:46:22;4.60;99.90
14061;DHT22;7105;43.616;1.434;2023-03-03T22:48:48;4.60;99.90
14061;DHT22;7105;43.616;1.434;2023-03-03T22:51:14;4.50;99.90